sensor_id;sensor_type;location;lat;lon;timestamp;temperature;humidity
4596;DHT22;2310;49.978;8.742;2022-09-20T00:02:56;13.60;99.90
4596;DHT22;2310;49.978;8.742;2022-09-20T00:06:57;13.70;99.90
4596;DHT22;2310;49.978;8.742;2022-09-20T00:11:04;13.70;99.90
4596;DHT22;2310;49.978;8.742;2022-09-20T00:15:07;13.80;99.90
4596;DHT22;2310;49.978;8.742;2022-09-20T00:19:15;13.70;99.90
4596;DHT22;2310;49.978;8.742;2022-09-20T00:23:14;13.60;99.90
4596;DHT22;2310;49.978;8.742;2022-09-20T00:27:15;13.60;99.90
4596;DHT22;2310;49.978;8.742;2022-09-20T00:31:17;13.50;99.90
4596;DHT22;2310;49.978;8.742;2022-09-20T00:35:18;13.50;99.90
4596;DHT22;2310;49.978;8.742;2022-09-20T00:39:19;13.50;99.90
4596;DHT22;2310;49.978;8.742;2022-09-20T00:43:35;13.40;99.90
4596;DHT22;2310;49.978;8.742;2022-09-20T00:47:44;13.30;99.90
4596;DHT22;2310;49.978;8.742;2022-09-20T00:51:54;13.40;99.90
4596;DHT22;2310;49.978;8.742;2022-09-20T00:56:02;13.30;99.90
4596;DHT22;2310;49.978;8.742;2022-09-20T01:00:06;13.20;99.90
4596;DHT22;2310;49.978;8.742;2022-09-20T01:04:10;13.20;99.90
4596;DHT22;2310;49.978;8.742;2022-09-20T01:08:12;13.30;99.90
4596;DHT22;2310;49.978;8.742;2022-09-20T01:12:17;13.40;99.90
4596;DHT22;2310;49.978;8.742;2022-09-20T01:16:19;13.30;99.90
4596;DHT22;2310;49.978;8.742;2022-09-20T01:20:24;13.20;99.90
4596;DHT22;2310;49.978;8.742;2022-09-20T01:24:37;13.20;99.90
4596;DHT22;2310;49.978;8.742;2022-09-20T01:28:36;13.00;99.90
4596;DHT22;2310;49.978;8.742;2022-09-20T01:33:05;12.90;99.90
4596;DHT22;2310;49.978;8.742;2022-09-20T01:37:11;12.90;99.90
4596;DHT22;2310;49.978;8.742;2022-09-20T01:45:29;12.80;99.90
4596;DHT22;2310;49.978;8.742;2022-09-20T02:07:44;12.70;99.90
4596;DHT22;2310;49.978;8.742;2022-09-20T02:33:51;12.70;99.90
4596;DHT22;2310;49.978;8.742;2022-09-20T02:42:36;12.60;99.90
4596;DHT22;2310;49.978;8.742;2022-09-20T03:08:25;12.40;99.90
4596;DHT22;2310;49.978;8.742;2022-09-20T03:26:11;12.40;99.90
4596;DHT22;2310;49.978;8.742;2022-09-20T03:34:47;12.20;99.90
4596;DHT22;2310;49.978;8.742;2022-09-20T03:39:09;12.20;99.90
4596;DHT22;2310;49.978;8.742;2022-09-20T03:43:28;12.20;99.90
4596;DHT22;2310;49.978;8.742;2022-09-20T03:52:16;12.30;99.90
4596;DHT22;2310;49.978;8.742;2022-09-20T04:04:46;12.10;99.90
4596;DHT22;2310;49.978;8.742;2022-09-20T04:09:00;12.10;99.90
4596;DHT22;2310;49.978;8.742;2022-09-20T04:17:25;12.00;99.90
4596;DHT22;2310;49.978;8.742;2022-09-20T04:21:50;11.90;99.90
4596;DHT22;2310;49.978;8.742;2022-09-20T04:25:51;11.90;99.90
4596;DHT22;2310;49.978;8.742;2022-09-20T04:34:03;11.70;99.90
4596;DHT22;2310;49.978;8.742;2022-09-20T04:38:08;11.60;99.90
4596;DHT22;2310;49.978;8.742;2022-09-20T05:00:20;11.50;99.90
4596;DHT22;2310;49.978;8.742;2022-09-20T05:26:14;11.70;99.90
4596;DHT22;2310;49.978;8.742;2022-09-20T05:30:30;11.80;99.90
4596;DHT22;2310;49.978;8.742;2022-09-20T05:34:38;11.80;99.90
4596;DHT22;2310;49.978;8.742;2022-09-20T05:38:47;11.70;99.90
4596;DHT22;2310;49.978;8.742;2022-09-20T05:43:41;11.80;99.90
4596;DHT22;2310;49.978;8.742;2022-09-20T05:47:16;11.70;99.90
4596;DHT22;2310;49.978;8.742;2022-09-20T05:51:40;11.60;99.90
4596;DHT22;2310;49.978;8.742;2022-09-20T06:00:18;11.90;99.90
4596;DHT22;2310;49.978;8.742;2022-09-20T06:04:24;12.00;99.90
4596;DHT22;2310;49.978;8.742;2022-09-20T06:12:46;12.00;99.90
4596;DHT22;2310;49.978;8.742;2022-09-20T06:21:17;12.40;99.90
4596;DHT22;2310;49.978;8.742;2022-09-20T06:25:22;12.50;99.90
4596;DHT22;2310;49.978;8.742;2022-09-20T06:29:31;12.60;99.90
4596;DHT22;2310;49.978;8.742;2022-09-20T06:38:02;12.80;99.90
4596;DHT22;2310;49.978;8.742;2022-09-20T06:42:19;12.80;99.90
4596;DHT22;2310;49.978;8.742;2022-09-20T06:46:22;12.90;99.90
4596;DHT22;2310;49.978;8.742;2022-09-20T06:50:23;13.00;99.90
4596;DHT22;2310;49.978;8.742;2022-09-20T06:54:25;13.20;99.90
4596;DHT22;2310;49.978;8.742;2022-09-20T06:58:27;13.30;99.90
4596;DHT22;2310;49.978;8.742;2022-09-20T07:02:29;13.50;99.90
4596;DHT22;2310;49.978;8.742;2022-09-20T07:06:35;13.60;99.90
4596;DHT22;2310;49.978;8.742;2022-09-20T07:10:34;13.80;99.90
4596;DHT22;2310;49.978;8.742;2022-09-20T07:14:35;13.70;99.90
4596;DHT22;2310;49.978;8.742;2022-09-20T07:18:37;14.00;99.90
4596;DHT22;2310;49.978;8.742;2022-09-20T07:22:39;14.00;99.90
4596;DHT22;2310;49.978;8.742;2022-09-20T07:26:58;14.00;99.90
4596;DHT22;2310;49.978;8.742;2022-09-20T07:30:57;14.00;99.90
4596;DHT22;2310;49.978;8.742;2022-09-20T07:34:58;14.20;99.90
4596;DHT22;2310;49.978;8.742;2022-09-20T07:39:00;14.10;99.90
4596;DHT22;2310;49.978;8.742;2022-09-20T07:43:01;14.10;99.90
4596;DHT22;2310;49.978;8.742;2022-09-20T07:47:02;14.30;99.90
4596;DHT22;2310;49.978;8.742;2022-09-20T07:51:06;14.40;99.90
4596;DHT22;2310;49.978;8.742;2022-09-20T07:55:09;14.60;99.90
4596;DHT22;2310;49.978;8.742;2022-09-20T07:59:11;14.60;99.90
4596;DHT22;2310;49.978;8.742;2022-09-20T08:03:13;14.60;99.90
4596;DHT22;2310;49.978;8.742;2022-09-20T08:07:14;14.60;99.90
4596;DHT22;2310;49.978;8.742;2022-09-20T08:11:18;14.60;99.90
4596;DHT22;2310;49.978;8.742;2022-09-20T08:15:20;14.80;99.90
4596;DHT22;2310;49.978;8.742;2022-09-20T08:19:22;14.90;99.90
4596;DHT22;2310;49.978;8.742;2022-09-20T08:23:23;15.00;99.90
4596;DHT22;2310;49.978;8.742;2022-09-20T08:27:25;15.00;99.90
4596;DHT22;2310;49.978;8.742;2022-09-20T08:31:28;15.10;99.90
4596;DHT22;2310;49.978;8.742;2022-09-20T08:35:36;15.50;99.90
4596;DHT22;2310;49.978;8.742;2022-09-20T08:39:39;15.60;99.90
4596;DHT22;2310;49.978;8.742;2022-09-20T08:43:48;15.90;99.90
4596;DHT22;2310;49.978;8.742;2022-09-20T08:47:59;15.70;99.90
4596;DHT22;2310;49.978;8.742;2022-09-20T08:51:59;16.00;99.90
4596;DHT22;2310;49.978;8.742;2022-09-20T08:56:02;16.00;99.90
4596;DHT22;2310;49.978;8.742;2022-09-20T09:00:05;16.20;99.90
4596;DHT22;2310;49.978;8.742;2022-09-20T09:08:27;16.30;99.90
4596;DHT22;2310;49.978;8.742;2022-09-20T09:12:32;16.60;99.90
4596;DHT22;2310;49.978;8.742;2022-09-20T09:16:34;16.70;99.90
4596;DHT22;2310;49.978;8.742;2022-09-20T09:20:39;16.90;99.90
4596;DHT22;2310;49.978;8.742;2022-09-20T09:24:41;17.10;99.90
4596;DHT22;2310;49.978;8.742;2022-09-20T09:28:42;17.60;99.90
4596;DHT22;2310;49.978;8.742;2022-09-20T09:32:44;17.90;99.90
4596;DHT22;2310;49.978;8.742;2022-09-20T09:36:45;18.00;99.90
4596;DHT22;2310;49.978;8.742;2022-09-20T09:40:49;19.10;99.90
4596;DHT22;2310;49.978;8.742;2022-09-20T09:44:51;19.50;99.90
4596;DHT22;2310;49.978;8.742;2022-09-20T09:53:22;19.90;98.10
4596;DHT22;2310;49.978;8.742;2022-09-20T10:01:58;19.70;92.60
4596;DHT22;2310;49.978;8.742;2022-09-20T10:10:36;19.60;94.50
4596;DHT22;2310;49.978;8.742;2022-09-20T10:19:24;20.00;92.10
4596;DHT22;2310;49.978;8.742;2022-09-20T10:36:47;19.00;92.00
4596;DHT22;2310;49.978;8.742;2022-09-20T10:45:51;20.70;86.20
4596;DHT22;2310;49.978;8.742;2022-09-20T11:11:44;21.10;66.40
4596;DHT22;2310;49.978;8.742;2022-09-20T11:28:39;19.10;75.00
4596;DHT22;2310;49.978;8.742;2022-09-20T11:32:52;19.00;74.40
4596;DHT22;2310;49.978;8.742;2022-09-20T11:36:57;19.10;80.80
4596;DHT22;2310;49.978;8.742;2022-09-20T11:41:22;19.20;80.30
4596;DHT22;2310;49.978;8.742;2022-09-20T11:45:26;19.70;77.50
4596;DHT22;2310;49.978;8.742;2022-09-20T11:58:19;19.70;85.60
4596;DHT22;2310;49.978;8.742;2022-09-20T12:02:46;20.00;87.80
4596;DHT22;2310;49.978;8.742;2022-09-20T12:06:36;19.80;88.20
4596;DHT22;2310;49.978;8.742;2022-09-20T12:10:41;19.90;87.50
4596;DHT22;2310;49.978;8.742;2022-09-20T12:14:52;19.80;83.40
4596;DHT22;2310;49.978;8.742;2022-09-20T12:32:03;21.30;70.00
4596;DHT22;2310;49.978;8.742;2022-09-20T12:36:17;21.80;72.00
4596;DHT22;2310;49.978;8.742;2022-09-20T12:40:16;21.90;64.30
4596;DHT22;2310;49.978;8.742;2022-09-20T12:44:36;20.30;65.80
4596;DHT22;2310;49.978;8.742;2022-09-20T12:48:38;20.20;70.50
4596;DHT22;2310;49.978;8.742;2022-09-20T12:56:50;19.20;93.00
4596;DHT22;2310;49.978;8.742;2022-09-20T13:05:00;17.80;99.90
4596;DHT22;2310;49.978;8.742;2022-09-20T13:09:03;17.60;99.90
4596;DHT22;2310;49.978;8.742;2022-09-20T13:13:11;17.30;99.90
4596;DHT22;2310;49.978;8.742;2022-09-20T13:17:20;16.90;99.90
4596;DHT22;2310;49.978;8.742;2022-09-20T13:21:21;16.60;99.90
4596;DHT22;2310;49.978;8.742;2022-09-20T13:25:23;16.30;99.90
4596;DHT22;2310;49.978;8.742;2022-09-20T13:29:34;16.20;99.90
4596;DHT22;2310;49.978;8.742;2022-09-20T13:33:36;16.10;99.90
4596;DHT22;2310;49.978;8.742;2022-09-20T13:41:42;16.50;99.90
4596;DHT22;2310;49.978;8.742;2022-09-20T13:45:45;16.40;99.90
4596;DHT22;2310;49.978;8.742;2022-09-20T13:49:48;16.30;99.90
4596;DHT22;2310;49.978;8.742;2022-09-20T13:53:50;15.80;99.90
4596;DHT22;2310;49.978;8.742;2022-09-20T13:57:53;15.60;99.90
4596;DHT22;2310;49.978;8.742;2022-09-20T14:01:56;16.40;99.90
4596;DHT22;2310;49.978;8.742;2022-09-20T14:06:10;16.70;99.90
4596;DHT22;2310;49.978;8.742;2022-09-20T14:10:33;17.20;99.90
4596;DHT22;2310;49.978;8.742;2022-09-20T14:14:35;17.60;99.90
4596;DHT22;2310;49.978;8.742;2022-09-20T14:18:39;17.70;99.90
4596;DHT22;2310;49.978;8.742;2022-09-20T14:22:42;17.60;99.90
4596;DHT22;2310;49.978;8.742;2022-09-20T14:26:59;18.00;99.90
4596;DHT22;2310;49.978;8.742;2022-09-20T14:35:24;18.30;99.90
4596;DHT22;2310;49.978;8.742;2022-09-20T14:39:26;18.50;99.90
4596;DHT22;2310;49.978;8.742;2022-09-20T14:43:30;18.60;99.90
4596;DHT22;2310;49.978;8.742;2022-09-20T14:51:47;18.40;99.90
4596;DHT22;2310;49.978;8.742;2022-09-20T14:55:58;18.10;99.90
4596;DHT22;2310;49.978;8.742;2022-09-20T15:00:07;17.80;99.90
4596;DHT22;2310;49.978;8.742;2022-09-20T15:04:12;18.00;99.90
4596;DHT22;2310;49.978;8.742;2022-09-20T15:08:13;17.90;99.90
4596;DHT22;2310;49.978;8.742;2022-09-20T15:12:18;17.60;99.90
4596;DHT22;2310;49.978;8.742;2022-09-20T15:16:20;17.40;99.90
4596;DHT22;2310;49.978;8.742;2022-09-20T15:20:21;17.60;99.90
4596;DHT22;2310;49.978;8.742;2022-09-20T15:24:25;17.60;99.90
4596;DHT22;2310;49.978;8.742;2022-09-20T15:28:29;17.50;99.90
4596;DHT22;2310;49.978;8.742;2022-09-20T15:32:32;17.70;99.90
4596;DHT22;2310;49.978;8.742;2022-09-20T15:36:34;17.90;99.90
4596;DHT22;2310;49.978;8.742;2022-09-20T15:40:40;17.80;99.90
4596;DHT22;2310;49.978;8.742;2022-09-20T15:44:42;17.80;99.90
4596;DHT22;2310;49.978;8.742;2022-09-20T15:48:43;17.70;99.90
4596;DHT22;2310;49.978;8.742;2022-09-20T15:52:45;17.30;99.90
4596;DHT22;2310;49.978;8.742;2022-09-20T15:56:49;17.10;99.90
4596;DHT22;2310;49.978;8.742;2022-09-20T16:01:03;17.10;99.90
4596;DHT22;2310;49.978;8.742;2022-09-20T16:05:06;17.10;99.90
4596;DHT22;2310;49.978;8.742;2022-09-20T16:09:10;17.20;99.90
4596;DHT22;2310;49.978;8.742;2022-09-20T16:13:12;17.10;99.90
4596;DHT22;2310;49.978;8.742;2022-09-20T16:17:14;17.20;99.90
4596;DHT22;2310;49.978;8.742;2022-09-20T16:21:19;17.30;99.90
4596;DHT22;2310;49.978;8.742;2022-09-20T16:25:24;17.40;99.90
4596;DHT22;2310;49.978;8.742;2022-09-20T16:29:25;17.30;99.90
4596;DHT22;2310;49.978;8.742;2022-09-20T16:33:27;17.30;99.90
4596;DHT22;2310;49.978;8.742;2022-09-20T16:37:28;17.10;99.90
4596;DHT22;2310;49.978;8.742;2022-09-20T16:41:31;16.80;99.90
4596;DHT22;2310;49.978;8.742;2022-09-20T16:45:34;16.90;99.90
4596;DHT22;2310;49.978;8.742;2022-09-20T16:49:36;17.40;99.90
4596;DHT22;2310;49.978;8.742;2022-09-20T16:53:38;17.30;99.90
4596;DHT22;2310;49.978;8.742;2022-09-20T16:57:39;17.10;99.90
4596;DHT22;2310;49.978;8.742;2022-09-20T17:01:41;16.80;99.90
4596;DHT22;2310;49.978;8.742;2022-09-20T17:05:42;16.70;99.90
4596;DHT22;2310;49.978;8.742;2022-09-20T17:09:43;16.50;99.90
4596;DHT22;2310;49.978;8.742;2022-09-20T17:13:45;16.40;99.90
4596;DHT22;2310;49.978;8.742;2022-09-20T17:17:47;16.40;99.90
4596;DHT22;2310;49.978;8.742;2022-09-20T17:21:49;16.40;99.90
4596;DHT22;2310;49.978;8.742;2022-09-20T17:25:59;16.30;99.90
4596;DHT22;2310;49.978;8.742;2022-09-20T17:29:55;16.20;99.90
4596;DHT22;2310;49.978;8.742;2022-09-20T17:33:57;16.10;99.90
4596;DHT22;2310;49.978;8.742;2022-09-20T17:38:00;16.10;99.90
4596;DHT22;2310;49.978;8.742;2022-09-20T17:42:01;15.90;99.90
4596;DHT22;2310;49.978;8.742;2022-09-20T17:50:11;15.80;99.90
4596;DHT22;2310;49.978;8.742;2022-09-20T17:54:14;15.70;99.90
4596;DHT22;2310;49.978;8.742;2022-09-20T17:58:15;15.70;99.90
4596;DHT22;2310;49.978;8.742;2022-09-20T18:02:17;15.70;99.90
4596;DHT22;2310;49.978;8.742;2022-09-20T18:06:26;15.60;99.90
4596;DHT22;2310;49.978;8.742;2022-09-20T18:10:28;15.40;99.90
4596;DHT22;2310;49.978;8.742;2022-09-20T18:14:30;15.40;99.90
4596;DHT22;2310;49.978;8.742;2022-09-20T18:18:32;15.20;99.90
4596;DHT22;2310;49.978;8.742;2022-09-20T18:22:35;15.00;99.90
4596;DHT22;2310;49.978;8.742;2022-09-20T18:26:39;14.90;99.90
4596;DHT22;2310;49.978;8.742;2022-09-20T18:30:41;14.90;99.90
4596;DHT22;2310;49.978;8.742;2022-09-20T18:34:45;14.90;99.90
4596;DHT22;2310;49.978;8.742;2022-09-20T18:38:48;15.00;99.90
4596;DHT22;2310;49.978;8.742;2022-09-20T18:42:51;14.90;99.90
4596;DHT22;2310;49.978;8.742;2022-09-20T18:46:54;14.90;99.90
4596;DHT22;2310;49.978;8.742;2022-09-20T18:51:05;14.80;99.90
4596;DHT22;2310;49.978;8.742;2022-09-20T18:55:03;14.70;99.90
4596;DHT22;2310;49.978;8.742;2022-09-20T18:59:12;14.80;99.90
4596;DHT22;2310;49.978;8.742;2022-09-20T19:03:25;14.80;99.90
4596;DHT22;2310;49.978;8.742;2022-09-20T19:11:54;15.00;99.90
4596;DHT22;2310;49.978;8.742;2022-09-20T19:20:10;15.20;99.90
4596;DHT22;2310;49.978;8.742;2022-09-20T19:28:44;15.20;99.90
4596;DHT22;2310;49.978;8.742;2022-09-20T19:32:45;15.00;99.90
4596;DHT22;2310;49.978;8.742;2022-09-20T19:50:34;15.10;99.90
4596;DHT22;2310;49.978;8.742;2022-09-20T19:54:34;15.00;99.90
4596;DHT22;2310;49.978;8.742;2022-09-20T19:58:37;15.10;99.90
4596;DHT22;2310;49.978;8.742;2022-09-20T20:02:41;15.10;99.90
4596;DHT22;2310;49.978;8.742;2022-09-20T20:15:31;15.20;99.90
4596;DHT22;2310;49.978;8.742;2022-09-20T20:27:54;15.00;99.90
4596;DHT22;2310;49.978;8.742;2022-09-20T20:31:55;14.90;99.90
4596;DHT22;2310;49.978;8.742;2022-09-20T20:35:58;14.80;99.90
4596;DHT22;2310;49.978;8.742;2022-09-20T20:40:00;14.80;99.90
4596;DHT22;2310;49.978;8.742;2022-09-20T20:44:02;14.70;99.90
4596;DHT22;2310;49.978;8.742;2022-09-20T20:48:05;14.70;99.90
4596;DHT22;2310;49.978;8.742;2022-09-20T20:52:06;14.60;99.90
4596;DHT22;2310;49.978;8.742;2022-09-20T20:56:10;14.50;99.90
4596;DHT22;2310;49.978;8.742;2022-09-20T21:00:13;14.40;99.90
4596;DHT22;2310;49.978;8.742;2022-09-20T21:04:15;14.40;99.90
4596;DHT22;2310;49.978;8.742;2022-09-20T21:08:17;14.40;99.90
4596;DHT22;2310;49.978;8.742;2022-09-20T21:12:18;14.30;99.90
4596;DHT22;2310;49.978;8.742;2022-09-20T21:16:23;14.20;99.90
4596;DHT22;2310;49.978;8.742;2022-09-20T21:20:25;14.10;99.90
4596;DHT22;2310;49.978;8.742;2022-09-20T21:24:26;14.00;99.90
4596;DHT22;2310;49.978;8.742;2022-09-20T21:28:28;14.00;99.90
4596;DHT22;2310;49.978;8.742;2022-09-20T21:32:30;13.80;99.90
4596;DHT22;2310;49.978;8.742;2022-09-20T21:36:32;13.80;99.90
4596;DHT22;2310;49.978;8.742;2022-09-20T21:40:35;13.70;99.90
4596;DHT22;2310;49.978;8.742;2022-09-20T21:44:38;13.60;99.90
4596;DHT22;2310;49.978;8.742;2022-09-20T21:48:42;13.30;99.90
4596;DHT22;2310;49.978;8.742;2022-09-20T21:52:43;13.30;99.90
4596;DHT22;2310;49.978;8.742;2022-09-20T21:56:46;13.30;99.90
4596;DHT22;2310;49.978;8.742;2022-09-20T22:01:03;13.20;99.90
4596;DHT22;2310;49.978;8.742;2022-09-20T22:05:06;13.20;99.90
4596;DHT22;2310;49.978;8.742;2022-09-20T22:09:10;13.10;99.90
4596;DHT22;2310;49.978;8.742;2022-09-20T22:13:11;13.10;99.90
4596;DHT22;2310;49.978;8.742;2022-09-20T22:17:12;13.10;99.90
4596;DHT22;2310;49.978;8.742;2022-09-20T22:21:20;13.00;99.90
4596;DHT22;2310;49.978;8.742;2022-09-20T22:25:21;13.00;99.90
4596;DHT22;2310;49.978;8.742;2022-09-20T22:29:24;13.00;99.90
4596;DHT22;2310;49.978;8.742;2022-09-20T22:33:25;13.00;99.90
4596;DHT22;2310;49.978;8.742;2022-09-20T22:37:26;12.90;99.90
4596;DHT22;2310;49.978;8.742;2022-09-20T22:41:27;12.70;99.90
4596;DHT22;2310;49.978;8.742;2022-09-20T22:45:29;12.70;99.90
4596;DHT22;2310;49.978;8.742;2022-09-20T22:49:32;12.70;99.90
4596;DHT22;2310;49.978;8.742;2022-09-20T22:53:33;12.70;99.90
4596;DHT22;2310;49.978;8.742;2022-09-20T22:57:35;12.60;99.90
4596;DHT22;2310;49.978;8.742;2022-09-20T23:01:43;12.60;99.90
4596;DHT22;2310;49.978;8.742;2022-09-20T23:05:42;12.60;99.90
4596;DHT22;2310;49.978;8.742;2022-09-20T23:09:44;12.50;99.90
4596;DHT22;2310;49.978;8.742;2022-09-20T23:13:46;12.50;99.90
4596;DHT22;2310;49.978;8.742;2022-09-20T23:17:47;12.40;99.90
4596;DHT22;2310;49.978;8.742;2022-09-20T23:21:48;12.30;99.90
4596;DHT22;2310;49.978;8.742;2022-09-20T23:25:49;12.30;99.90
4596;DHT22;2310;49.978;8.742;2022-09-20T23:29:50;12.30;99.90
4596;DHT22;2310;49.978;8.742;2022-09-20T23:33:54;12.30;99.90
4596;DHT22;2310;49.978;8.742;2022-09-20T23:37:56;12.20;99.90
4596;DHT22;2310;49.978;8.742;2022-09-20T23:41:57;12.20;99.90
4596;DHT22;2310;49.978;8.742;2022-09-20T23:45:58;12.20;99.90
4596;DHT22;2310;49.978;8.742;2022-09-20T23:49:59;12.10;99.90
4596;DHT22;2310;49.978;8.742;2022-09-20T23:54:01;12.00;99.90
4596;DHT22;2310;49.978;8.742;2022-09-20T23:58:03;12.00;99.90
